Time;durP1;ratioP1;P1;durP2;ratioP2;P2;SDS_P1;SDS_P2;PMS_P1;PMS_P2;Temp;Humidity;BMP_temperature;BMP_pressure;BME280_temperature;BME280_humidity;BME280_pressure;Samples;Min_cycle;Max_cycle;Signal;HPM_P1;HPM_P2
2023/12/05 00:01:45;;;;;;;17.67;13.15;;;1.10;99.90;;;;;;5035909;28;20671;-81
2023/12/05 00:04:14;;;;;;;17.25;12.50;;;1.40;99.90;;;;;;5038732;28;20236;-81
2023/12/05 00:06:46;;;;;;;24.55;14.75;;;1.40;99.90;;;;;;5034836;28;20204;-81
2023/12/05 00:09:27;;;;;;;18.17;11.55;;;1.40;99.90;;;;;;5037801;28;20215;-81
2023/12/05 00:12:02;;;;;;;21.75;14.02;;;1.40;99.90;;;;;;5041968;28;20291;-83
2023/12/05 00:14:41;;;;;;;24.55;15.57;;;1.40;99.90;;;;;;5040627;28;20184;-80
2023/12/05 00:17:14;;;;;;;21.77;14.55;;;1.30;99.90;;;;;;5054014;28;20269;-82
2023/12/05 00:19:43;;;;;;;24.08;15.95;;;1.30;99.90;;;;;;5048120;28;20201;-81
2023/12/05 00:22:15;;;;;;;21.90;14.40;;;1.30;99.90;;;;;;5043990;28;20200;-83
2023/12/05 00:24:50;;;;;;;19.08;14.45;;;1.40;99.90;;;;;;5043414;28;20284;-82
2023/12/05 00:27:23;;;;;;;28.88;17.35;;;1.30;99.90;;;;;;5043390;28;20678;-81
2023/12/05 00:29:54;;;;;;;21.00;15.20;;;1.30;99.90;;;;;;5042553;28;20219;-81
2023/12/05 00:32:23;;;;;;;20.80;13.20;;;1.20;99.90;;;;;;5042979;28;20201;-81
2023/12/05 00:34:58;;;;;;;25.10;15.30;;;1.40;99.90;;;;;;5042184;28;20216;-81
2023/12/05 00:37:40;;;;;;;22.88;14.93;;;1.50;99.90;;;;;;5042143;28;20630;-81
2023/12/05 00:40:19;;;;;;;21.77;15.68;;;1.40;99.90;;;;;;5036237;28;20204;-81
2023/12/05 00:45:40;;;;;;;25.70;15.32;;;1.60;99.90;;;;;;5037161;28;20290;-81
2023/12/05 00:48:25;;;;;;;19.67;13.82;;;1.40;99.90;;;;;;5040726;28;20605;-81
2023/12/05 00:53:48;;;;;;;24.85;16.30;;;1.40;99.90;;;;;;5041389;28;20205;-82
2023/12/05 00:56:38;;;;;;;17.45;13.38;;;1.40;99.90;;;;;;5041850;28;20627;-82
2023/12/05 00:59:17;;;;;;;25.15;14.75;;;1.40;99.90;;;;;;5036884;28;20199;-83
2023/12/05 01:01:48;;;;;;;24.60;14.13;;;1.50;99.90;;;;;;5056079;28;20184;-81
2023/12/05 01:04:24;;;;;;;25.27;16.17;;;1.40;99.90;;;;;;5046475;28;20220;-81
2023/12/05 01:09:39;;;;;;;22.15;15.82;;;1.30;99.90;;;;;;5045030;28;20274;-82
2023/12/05 01:12:32;;;;;;;21.83;15.50;;;1.40;99.90;;;;;;5044490;28;20197;-81
2023/12/05 01:15:14;;;;;;;21.33;15.32;;;1.40;99.90;;;;;;5039083;28;20192;-82
2023/12/05 01:17:53;;;;;;;24.65;16.20;;;1.60;99.90;;;;;;5046889;28;20244;-81
2023/12/05 01:20:27;;;;;;;23.15;15.30;;;1.40;99.90;;;;;;5046802;28;20208;-81
2023/12/05 01:23:07;;;;;;;19.90;13.95;;;1.40;99.90;;;;;;5046594;28;20246;-81
2023/12/05 01:25:42;;;;;;;23.17;15.73;;;1.60;99.90;;;;;;5042255;28;20226;-81
2023/12/05 01:28:14;;;;;;;23.50;15.45;;;1.50;99.90;;;;;;5044685;28;20219;-82
2023/12/05 01:30:45;;;;;;;27.75;16.05;;;1.40;99.90;;;;;;5046663;28;20219;-81
2023/12/05 01:33:18;;;;;;;24.48;15.60;;;1.40;99.90;;;;;;5045459;28;20239;-82
2023/12/05 01:35:48;;;;;;;29.08;16.70;;;1.40;99.90;;;;;;5045806;28;20231;-81
2023/12/05 01:38:18;;;;;;;25.58;17.42;;;1.40;99.90;;;;;;5043966;28;20259;-81
2023/12/05 01:40:47;;;;;;;24.65;16.20;;;1.50;99.90;;;;;;5034268;28;20217;-81
2023/12/05 01:43:28;;;;;;;26.17;16.58;;;1.50;99.90;;;;;;5038098;28;20196;-81
2023/12/05 01:45:59;;;;;;;23.40;18.70;;;1.60;99.90;;;;;;5042185;28;20232;-81
2023/12/05 01:48:32;;;;;;;26.48;17.73;;;1.40;99.90;;;;;;5047196;28;20228;-81
2023/12/05 01:51:11;;;;;;;25.23;16.83;;;1.40;99.90;;;;;;5048641;28;20208;-81
2023/12/05 01:53:43;;;;;;;30.60;17.95;;;1.50;99.90;;;;;;5046800;28;20706;-82
2023/12/05 01:56:20;;;;;;;28.90;17.38;;;1.40;99.90;;;;;;5046614;28;20193;-80
2023/12/05 01:58:54;;;;;;;26.35;17.33;;;1.30;99.90;;;;;;5044914;28;20565;-81
2023/12/05 02:01:41;;;;;;;24.17;14.95;;;1.50;99.90;;;;;;5046546;28;20265;-81
2023/12/05 02:04:10;;;;;;;27.42;17.67;;;1.60;99.90;;;;;;5038633;28;20525;-81
2023/12/05 02:06:44;;;;;;;21.75;14.55;;;1.50;99.90;;;;;;5044965;28;20221;-81
2023/12/05 02:09:16;;;;;;;26.23;18.88;;;1.50;99.90;;;;;;5045975;28;20201;-79
2023/12/05 02:11:51;;;;;;;25.13;16.38;;;1.50;99.90;;;;;;5044194;28;20268;-81
2023/12/05 02:14:31;;;;;;;22.48;13.70;;;1.50;99.90;;;;;;5043777;28;20300;-81
2023/12/05 02:17:10;;;;;;;25.58;14.95;;;1.50;99.90;;;;;;5047912;28;20262;-82
2023/12/05 02:19:58;;;;;;;25.92;15.60;;;1.60;99.90;;;;;;5043875;28;20267;-82
2023/12/05 02:26:10;;;;;;;22.85;15.75;;;1.50;99.90;;;;;;5045635;28;20240;-82
2023/12/05 02:28:59;;;;;;;31.70;17.55;;;1.60;99.90;;;;;;5045115;28;20227;-82
2023/12/05 02:31:30;;;;;;;22.92;15.65;;;1.50;99.90;;;;;;5045185;28;20200;-82
2023/12/05 02:34:11;;;;;;;23.67;16.88;;;1.40;99.90;;;;;;5044452;28;20209;-82
2023/12/05 02:36:52;;;;;;;25.83;15.23;;;1.60;99.90;;;;;;5045029;28;20212;-81
2023/12/05 02:42:25;;;;;;;26.02;16.02;;;1.50;99.90;;;;;;5036045;28;20287;-83
2023/12/05 02:45:18;;;;;;;28.60;16.88;;;1.50;99.90;;;;;;5042299;28;20293;-82
2023/12/05 02:47:52;;;;;;;24.52;17.75;;;1.40;99.90;;;;;;5041311;28;20725;-81
2023/12/05 02:50:23;;;;;;;28.13;18.30;;;1.50;99.90;;;;;;5044508;28;20266;-80
2023/12/05 02:52:59;;;;;;;29.83;17.90;;;1.40;99.90;;;;;;5045040;28;20217;-81
2023/12/05 02:55:38;;;;;;;25.45;19.02;;;1.40;99.90;;;;;;5043833;28;20220;-81
2023/12/05 02:58:09;;;;;;;28.52;19.83;;;1.30;99.90;;;;;;5042156;28;20314;-81
2023/12/05 03:00:43;;;;;;;27.75;18.40;;;1.10;99.90;;;;;;5045691;28;20205;-80
2023/12/05 03:05:58;;;;;;;27.60;17.52;;;1.30;99.90;;;;;;5047312;28;20229;-83
2023/12/05 03:08:40;;;;;;;22.63;15.25;;;1.20;99.90;;;;;;5046008;28;20225;-82
2023/12/05 03:11:23;;;;;;;29.27;18.35;;;1.20;99.90;;;;;;5046290;28;20201;-82
2023/12/05 03:13:53;;;;;;;28.65;18.60;;;1.20;99.90;;;;;;5049471;28;20255;-81
2023/12/05 03:16:42;;;;;;;23.73;17.40;;;1.30;99.90;;;;;;5041161;28;20250;-83
2023/12/05 03:19:12;;;;;;;24.58;15.65;;;1.20;99.90;;;;;;5032935;28;20199;-81
2023/12/05 03:21:49;;;;;;;24.88;16.00;;;1.30;99.90;;;;;;5044142;28;20202;-80
2023/12/05 03:24:18;;;;;;;24.85;17.58;;;1.40;99.90;;;;;;5052977;28;20212;-80
2023/12/05 03:32:20;;;;;;;26.80;15.95;;;1.40;99.90;;;;;;5038323;28;20608;-82
2023/12/05 03:35:05;;;;;;;28.50;17.98;;;1.40;99.90;;;;;;5050607;28;20829;-81
2023/12/05 03:37:40;;;;;;;26.27;18.58;;;1.30;99.90;;;;;;5050594;28;20259;-79
2023/12/05 03:40:12;;;;;;;30.42;18.65;;;1.30;99.90;;;;;;5045498;28;20201;-81
2023/12/05 03:45:35;;;;;;;24.83;17.02;;;1.30;99.90;;;;;;5046552;28;20277;-82
2023/12/05 03:48:09;;;;;;;23.95;16.30;;;1.40;99.90;;;;;;5044511;28;20240;-81
2023/12/05 03:50:43;;;;;;;26.02;17.92;;;1.40;99.90;;;;;;5041566;28;20269;-81
2023/12/05 03:53:12;;;;;;;27.88;18.38;;;1.30;99.90;;;;;;5023854;28;20212;-81
2023/12/05 03:55:42;;;;;;;29.75;21.23;;;1.30;99.90;;;;;;5032431;28;20247;-80
2023/12/05 03:58:14;;;;;;;27.70;17.70;;;1.50;99.90;;;;;;5025002;28;20303;-80
2023/12/05 04:00:43;;;;;;;28.33;18.65;;;1.40;99.90;;;;;;5033774;28;20188;-81
2023/12/05 04:03:17;;;;;;;30.67;19.33;;;1.30;99.90;;;;;;5045701;28;20188;-81
2023/12/05 04:05:49;;;;;;;24.02;17.33;;;1.40;99.90;;;;;;5042250;28;20204;-81
2023/12/05 04:08:38;;;;;;;28.50;17.17;;;1.40;99.90;;;;;;5053432;28;20274;-81
2023/12/05 04:14:06;;;;;;;29.60;18.00;;;1.20;99.90;;;;;;5045384;28;20204;-81
2023/12/05 04:16:39;;;;;;;26.52;18.00;;;1.40;99.90;;;;;;5035186;28;20216;-81
2023/12/05 04:19:14;;;;;;;29.35;19.38;;;1.40;99.90;;;;;;5041553;28;20235;-81
2023/12/05 04:21:47;;;;;;;31.83;19.48;;;1.40;99.90;;;;;;5042324;28;20743;-81
2023/12/05 04:24:26;;;;;;;30.75;19.10;;;1.40;99.90;;;;;;5043707;28;20210;-80
2023/12/05 04:27:00;;;;;;;27.65;19.73;;;1.40;99.90;;;;;;5055927;28;20623;-80
2023/12/05 04:29:40;;;;;;;23.10;18.27;;;1.50;99.90;;;;;;5043826;28;20280;-81
2023/12/05 04:32:29;;;;;;;30.02;19.88;;;1.40;99.90;;;;;;5035752;28;20671;-81
2023/12/05 04:35:15;;;;;;;27.23;18.55;;;1.40;99.90;;;;;;5042450;28;20227;-80
2023/12/05 04:40:42;;;;;;;30.10;18.40;;;1.50;99.90;;;;;;5040249;28;20201;-80
2023/12/05 04:43:16;;;;;;;28.75;21.33;;;1.40;99.90;;;;;;5042784;28;20236;-81
2023/12/05 04:45:51;;;;;;;30.30;20.27;;;1.50;99.90;;;;;;5043856;28;20252;-81
2023/12/05 04:48:32;;;;;;;25.35;17.60;;;1.40;99.90;;;;;;5044648;28;20283;-82
2023/12/05 04:53:54;;;;;;;29.15;20.00;;;1.50;99.90;;;;;;5036604;28;20283;-81
2023/12/05 04:59:10;;;;;;;24.27;17.85;;;1.40;99.90;;;;;;5040443;28;20335;-82
2023/12/05 05:01:41;;;;;;;23.25;16.85;;;1.50;99.90;;;;;;5044910;28;20259;-82
2023/12/05 05:04:13;;;;;;;24.98;18.40;;;1.50;99.90;;;;;;5044295;28;20656;-81
2023/12/05 05:06:46;;;;;;;26.60;18.83;;;1.40;99.90;;;;;;5042811;28;20231;-81
2023/12/05 05:09:24;;;;;;;26.10;17.35;;;1.50;99.90;;;;;;5037745;28;20215;-81
2023/12/05 05:12:08;;;;;;;30.02;20.27;;;1.40;99.90;;;;;;5042192;28;20228;-81
2023/12/05 05:14:44;;;;;;;32.35;20.90;;;1.40;99.90;;;;;;5041091;28;20208;-81
2023/12/05 05:17:25;;;;;;;27.92;19.27;;;1.30;99.90;;;;;;5047459;28;20280;-82
2023/12/05 05:22:51;;;;;;;26.75;20.83;;;1.50;99.90;;;;;;5050179;28;20232;-81
2023/12/05 05:25:23;;;;;;;27.85;19.17;;;1.20;99.90;;;;;;5045772;28;20201;-80
2023/12/05 05:28:04;;;;;;;28.58;19.45;;;1.50;99.90;;;;;;5041561;28;20718;-80
2023/12/05 05:30:34;;;;;;;26.33;18.73;;;1.50;99.90;;;;;;5034905;28;20212;-80
2023/12/05 05:33:16;;;;;;;23.42;17.48;;;1.30;99.90;;;;;;5048670;28;20658;-81
2023/12/05 05:57:21;;;;;;;28.05;18.88;;;1.50;99.90;;;;;;4794046;30;20208;-84
2023/12/05 06:15:51;;;;;;;30.23;21.88;;;1.50;99.90;;;;;;4925458;29;20209;-84
2023/12/05 06:18:20;;;;;;;30.70;20.05;;;1.50;99.90;;;;;;4940799;29;20204;-84
2023/12/05 06:20:51;;;;;;;26.40;20.30;;;1.60;99.90;;;;;;4952605;28;20258;-84
2023/12/05 06:23:38;;;;;;;38.33;22.70;;;1.50;99.90;;;;;;5056493;28;20205;-83
2023/12/05 06:26:06;;;;;;;28.95;20.98;;;1.60;99.90;;;;;;5059651;28;20255;-83
2023/12/05 06:28:33;;;;;;;33.03;21.92;;;1.60;99.90;;;;;;5059525;28;20218;-81
2023/12/05 06:31:05;;;;;;;30.80;20.83;;;1.60;99.90;;;;;;5059250;28;20189;-82
2023/12/05 06:33:48;;;;;;;33.08;21.63;;;1.60;99.90;;;;;;5058951;28;20194;-82
2023/12/05 06:36:17;;;;;;;35.10;23.05;;;1.60;99.90;;;;;;5056977;28;20236;-84
2023/12/05 06:41:37;;;;;;;31.52;21.52;;;1.50;99.90;;;;;;5042133;28;20222;-86
2023/12/05 06:44:05;;;;;;;31.02;22.02;;;1.50;99.90;;;;;;5046278;28;20209;-84
2023/12/05 06:46:33;;;;;;;28.30;20.98;;;1.70;99.90;;;;;;5045578;28;20221;-84
2023/12/05 06:52:00;;;;;;;32.90;22.50;;;1.50;99.90;;;;;;5045733;28;20268;-84
2023/12/05 06:54:34;;;;;;;40.92;24.58;;;1.50;99.90;;;;;;5053847;28;20231;-85
2023/12/05 06:57:03;;;;;;;31.50;22.58;;;1.40;99.90;;;;;;5051390;28;20310;-83
2023/12/05 06:59:29;;;;;;;36.50;23.80;;;1.50;99.90;;;;;;5048275;28;20197;-84
2023/12/05 07:01:57;;;;;;;40.53;23.92;;;1.50;99.90;;;;;;5044649;28;20196;-84
2023/12/05 07:04:29;;;;;;;31.80;22.10;;;1.50;99.90;;;;;;5048997;28;20601;-85
2023/12/05 07:06:56;;;;;;;37.10;23.67;;;1.60;99.90;;;;;;5049898;28;20472;-88
2023/12/05 07:09:26;;;;;;;38.13;23.60;;;1.60;99.90;;;;;;5045678;28;20209;-86
2023/12/05 07:11:53;;;;;;;37.63;24.90;;;1.50;99.90;;;;;;5043298;28;20217;-86
2023/12/05 07:14:20;;;;;;;38.30;26.55;;;1.40;99.90;;;;;;5035958;28;20225;-83
2023/12/05 07:16:47;;;;;;;32.33;23.75;;;1.40;99.90;;;;;;5039980;28;20201;-86
2023/12/05 07:19:14;;;;;;;41.25;25.02;;;1.50;99.90;;;;;;5041635;28;20198;-86
2023/12/05 07:21:43;;;;;;;43.97;25.92;;;1.50;99.90;;;;;;5041479;28;20443;-86
2023/12/05 07:24:10;;;;;;;36.55;23.58;;;1.40;99.90;;;;;;5032725;28;20224;-86
2023/12/05 07:26:37;;;;;;;31.63;21.90;;;1.40;99.90;;;;;;5044175;28;20232;-88
2023/12/05 07:29:04;;;;;;;39.72;26.85;;;1.50;99.90;;;;;;5040544;28;20480;-85
2023/12/05 07:31:31;;;;;;;34.67;23.70;;;1.50;99.90;;;;;;5041013;28;20201;-86
2023/12/05 07:33:58;;;;;;;35.83;25.42;;;1.50;99.90;;;;;;5044880;28;20204;-88
2023/12/05 07:36:26;;;;;;;43.33;25.02;;;1.40;99.90;;;;;;5042145;28;20282;-87
2023/12/05 07:38:54;;;;;;;36.22;25.98;;;1.40;99.90;;;;;;5033337;28;20287;-89
2023/12/05 07:41:30;;;;;;;38.55;24.73;;;1.50;99.90;;;;;;5045010;28;20627;-89
2023/12/05 07:43:58;;;;;;;37.42;25.20;;;1.50;99.90;;;;;;5052143;28;20209;-86
2023/12/05 07:46:28;;;;;;;33.40;21.92;;;1.60;99.90;;;;;;5046962;28;20227;-87
2023/12/05 07:48:55;;;;;;;32.85;23.30;;;1.60;99.90;;;;;;5043126;28;20209;-87
2023/12/05 07:51:22;;;;;;;37.78;22.90;;;1.60;99.90;;;;;;5045581;28;20627;-88
2023/12/05 07:53:58;;;;;;;31.58;23.20;;;1.60;99.90;;;;;;5047297;28;20223;-87
2023/12/05 07:56:31;;;;;;;37.08;25.60;;;1.70;99.90;;;;;;5048215;28;20190;-87
2023/12/05 07:59:00;;;;;;;39.85;26.17;;;1.50;99.90;;;;;;5043350;28;20199;-87
2023/12/05 08:01:42;;;;;;;32.65;23.10;;;1.50;99.90;;;;;;5052211;28;20194;-85
2023/12/05 08:04:09;;;;;;;36.00;22.92;;;1.50;99.90;;;;;;5050852;28;20188;-86
2023/12/05 08:06:37;;;;;;;38.88;24.77;;;1.50;99.90;;;;;;5055922;28;20225;-88
2023/12/05 08:09:08;;;;;;;37.65;23.85;;;1.60;99.90;;;;;;5055688;28;20200;-85
2023/12/05 08:11:38;;;;;;;35.17;25.13;;;1.50;99.90;;;;;;5049576;28;20190;-84
2023/12/05 08:14:08;;;;;;;41.17;25.63;;;1.60;99.90;;;;;;5066634;22;20247;-71
2023/12/05 08:16:35;;;;;;;35.92;24.58;;;1.60;99.90;;;;;;5029821;28;20206;-72
2023/12/05 08:19:02;;;;;;;38.28;24.98;;;1.60;99.90;;;;;;5033114;28;20201;-70
2023/12/05 08:21:30;;;;;;;34.70;25.20;;;1.60;99.90;;;;;;5024431;28;20201;-69
2023/12/05 08:23:57;;;;;;;32.50;23.45;;;1.60;99.90;;;;;;5031371;28;20201;-69
2023/12/05 08:26:26;;;;;;;32.13;24.67;;;1.50;99.90;;;;;;5044193;28;20224;-73
2023/12/05 08:28:53;;;;;;;36.85;25.77;;;1.50;99.90;;;;;;5042806;28;20264;-69
2023/12/05 08:31:20;;;;;;;36.55;23.83;;;1.60;99.90;;;;;;5048691;28;20242;-70
2023/12/05 08:33:48;;;;;;;39.45;23.52;;;1.60;99.90;;;;;;5041298;28;20205;-69
2023/12/05 08:36:15;;;;;;;39.35;25.30;;;1.60;99.90;;;;;;5049285;28;20558;-70
2023/12/05 08:38:42;;;;;;;36.17;23.13;;;1.60;99.90;;;;;;5040524;28;20643;-67
2023/12/05 08:41:09;;;;;;;33.05;22.67;;;1.60;99.90;;;;;;5048148;28;20205;-71
2023/12/05 08:43:38;;;;;;;35.40;22.92;;;1.60;99.90;;;;;;5044946;28;20268;-70
2023/12/05 08:46:05;;;;;;;43.55;26.40;;;1.70;99.90;;;;;;5049747;28;20262;-70
2023/12/05 08:48:32;;;;;;;34.60;22.25;;;1.70;99.90;;;;;;5041251;28;20260;-72
2023/12/05 08:51:00;;;;;;;39.92;26.75;;;1.70;99.90;;;;;;5047003;28;20208;-71
2023/12/05 08:53:27;;;;;;;36.65;23.70;;;1.70;99.90;;;;;;5043535;28;20338;-73
2023/12/05 08:55:54;;;;;;;40.40;26.50;;;1.70;99.90;;;;;;5043886;28;20278;-70
2023/12/05 08:58:21;;;;;;;36.85;23.33;;;1.60;99.90;;;;;;5043082;28;20237;-69
2023/12/05 09:00:49;;;;;;;38.20;25.02;;;1.60;99.90;;;;;;5044425;28;20247;-72
2023/12/05 09:03:16;;;;;;;37.80;24.73;;;1.60;99.90;;;;;;5041730;28;20222;-74
2023/12/05 09:05:43;;;;;;;38.65;24.30;;;1.70;99.90;;;;;;5048081;28;20307;-73
2023/12/05 09:08:11;;;;;;;36.60;23.70;;;1.70;99.90;;;;;;5044359;28;20210;-69
2023/12/05 09:10:37;;;;;;;35.80;24.80;;;1.70;99.90;;;;;;5048923;28;20637;-73
2023/12/05 09:13:04;;;;;;;39.08;25.75;;;1.70;99.90;;;;;;5052227;28;20239;-69
2023/12/05 09:15:31;;;;;;;38.22;26.13;;;1.70;99.90;;;;;;5045649;28;20236;-69
2023/12/05 09:18:00;;;;;;;36.85;23.45;;;1.70;99.90;;;;;;5052631;28;20196;-66
2023/12/05 09:20:27;;;;;;;34.72;23.30;;;1.70;99.90;;;;;;5047395;28;20247;-68
2023/12/05 09:22:54;;;;;;;38.40;25.98;;;1.70;99.90;;;;;;5045694;28;20227;-70
2023/12/05 09:25:21;;;;;;;35.25;23.58;;;1.80;99.90;;;;;;5056653;28;20224;-68
2023/12/05 09:27:48;;;;;;;43.22;29.00;;;1.70;99.90;;;;;;5049684;28;20231;-69
2023/12/05 09:30:16;;;;;;;32.92;23.90;;;1.70;99.90;;;;;;5050807;28;20619;-74
2023/12/05 09:32:43;;;;;;;38.05;23.23;;;1.70;99.90;;;;;;5049121;28;20258;-72
2023/12/05 09:35:11;;;;;;;39.25;24.73;;;1.90;99.90;;;;;;5050620;28;20689;-68
2023/12/05 09:37:38;;;;;;;37.65;25.60;;;1.90;99.90;;;;;;5038602;28;20255;-72
2023/12/05 09:40:07;;;;;;;38.08;24.50;;;1.90;99.90;;;;;;5049209;28;20306;-71
2023/12/05 09:42:36;;;;;;;38.47;25.58;;;1.90;99.90;;;;;;5045290;28;20209;-70
2023/12/05 09:45:06;;;;;;;37.13;24.20;;;1.90;99.90;;;;;;5047567;28;20224;-70
2023/12/05 09:47:35;;;;;;;34.38;24.98;;;1.80;99.90;;;;;;5049946;28;20218;-72
2023/12/05 09:50:03;;;;;;;45.20;27.67;;;1.80;99.90;;;;;;5049548;28;20212;-67
2023/12/05 09:52:32;;;;;;;37.92;25.80;;;1.70;99.90;;;;;;5049536;28;20220;-72
2023/12/05 09:55:01;;;;;;;41.65;27.88;;;1.80;99.90;;;;;;5053653;28;20223;-69
2023/12/05 09:57:29;;;;;;;37.95;25.73;;;1.90;99.90;;;;;;5056152;28;20205;-70
2023/12/05 09:59:56;;;;;;;35.05;24.70;;;1.90;99.90;;;;;;5047131;28;20292;-68
2023/12/05 10:02:25;;;;;;;36.25;25.85;;;2.00;99.90;;;;;;5053887;28;20291;-70
2023/12/05 10:05:02;;;;;;;40.70;24.38;;;1.90;99.90;;;;;;5058200;28;20615;-72
2023/12/05 10:07:32;;;;;;;43.53;28.60;;;1.90;99.90;;;;;;5045562;28;20860;-71
2023/12/05 10:10:08;;;;;;;43.80;28.35;;;1.90;99.90;;;;;;5053076;28;20208;-71
2023/12/05 10:12:36;;;;;;;40.95;25.05;;;1.90;99.90;;;;;;5052664;28;20208;-70
2023/12/05 10:15:04;;;;;;;39.03;24.63;;;1.90;99.90;;;;;;5053458;28;20706;-73
2023/12/05 10:17:33;;;;;;;43.83;29.90;;;1.80;99.90;;;;;;5049781;28;20612;-72
2023/12/05 10:20:00;;;;;;;39.45;28.52;;;1.80;99.90;;;;;;5052985;28;20255;-71
2023/12/05 10:22:27;;;;;;;36.28;25.33;;;1.80;99.90;;;;;;5054388;28;20205;-69
2023/12/05 10:24:57;;;;;;;43.67;25.48;;;1.90;99.90;;;;;;5040690;28;20625;-68
2023/12/05 10:27:24;;;;;;;35.20;26.08;;;2.10;99.90;;;;;;5055036;28;20247;-70
2023/12/05 10:29:51;;;;;;;40.25;27.98;;;2.00;99.90;;;;;;5054084;28;20204;-75
2023/12/05 10:32:25;;;;;;;41.28;27.50;;;2.00;99.90;;;;;;5053245;28;20255;-70
2023/12/05 10:34:53;;;;;;;38.42;25.35;;;2.00;99.90;;;;;;5051031;28;20788;-72
2023/12/05 10:37:22;;;;;;;51.55;28.13;;;2.00;99.90;;;;;;5050187;28;20245;-69
2023/12/05 10:39:50;;;;;;;41.95;25.35;;;2.00;99.90;;;;;;5047393;28;20200;-68
2023/12/05 10:42:19;;;;;;;36.50;25.02;;;2.00;99.90;;;;;;5055772;28;20230;-69
2023/12/05 10:44:46;;;;;;;38.00;25.05;;;2.00;99.90;;;;;;5064562;28;20238;-71
2023/12/05 10:47:14;;;;;;;39.08;25.05;;;1.90;99.90;;;;;;5053207;28;20208;-70
2023/12/05 10:49:42;;;;;;;44.78;28.75;;;1.90;99.90;;;;;;5051835;28;20212;-70
2023/12/05 10:52:10;;;;;;;40.83;26.95;;;2.00;99.90;;;;;;5051142;28;20231;-72
2023/12/05 10:54:39;;;;;;;36.63;26.15;;;2.00;99.90;;;;;;5048841;28;20330;-72
2023/12/05 10:57:09;;;;;;;39.00;27.20;;;2.00;99.90;;;;;;5049001;28;20226;-68
2023/12/05 10:59:39;;;;;;;43.65;29.27;;;2.00;99.90;;;;;;5053308;28;20204;-71
2023/12/05 11:02:13;;;;;;;49.00;30.83;;;1.90;99.90;;;;;;5054158;28;20712;-68
2023/12/05 11:04:41;;;;;;;42.25;26.48;;;1.90;99.90;;;;;;5050999;28;20284;-70
2023/12/05 11:07:08;;;;;;;33.58;24.60;;;2.00;99.90;;;;;;5055099;28;20207;-68
2023/12/05 11:09:36;;;;;;;39.38;26.67;;;2.00;99.90;;;;;;5047410;28;20208;-68
2023/12/05 11:12:06;;;;;;;42.20;28.25;;;2.10;99.90;;;;;;5045322;28;20201;-68
2023/12/05 11:14:37;;;;;;;38.17;26.98;;;2.10;99.90;;;;;;5049679;28;20260;-71
2023/12/05 11:17:09;;;;;;;41.80;27.13;;;2.10;99.90;;;;;;5051991;28;20211;-70
2023/12/05 11:19:55;;;;;;;44.75;29.50;;;2.20;99.90;;;;;;5046534;28;20203;-69
2023/12/05 11:22:32;;;;;;;40.03;25.63;;;2.20;99.90;;;;;;5040127;28;20200;-72
2023/12/05 11:25:18;;;;;;;40.80;27.77;;;2.30;99.90;;;;;;5054070;28;20310;-68
2023/12/05 11:28:02;;;;;;;33.90;25.20;;;2.30;99.90;;;;;;5047986;28;20232;-71
2023/12/05 11:31:02;;;;;;;43.03;28.10;;;2.30;99.90;;;;;;5046233;28;20232;-69
2023/12/05 11:33:46;;;;;;;44.00;27.15;;;2.30;99.90;;;;;;5044772;28;20196;-70
2023/12/05 11:38:42;;;;;;;37.42;25.85;;;2.30;99.90;;;;;;4997841;28;20676;-69
2023/12/05 11:41:13;;;;;;;34.80;25.48;;;2.30;99.90;;;;;;4995764;28;20210;-69
2023/12/05 11:43:42;;;;;;;36.88;25.40;;;2.30;99.90;;;;;;4998905;28;20202;-70
2023/12/05 11:46:09;;;;;;;38.50;26.30;;;2.30;99.90;;;;;;5011586;28;20240;-71
2023/12/05 11:48:38;;;;;;;30.43;22.63;;;2.20;99.90;;;;;;5007786;28;20231;-70
2023/12/05 11:51:05;;;;;;;36.97;25.55;;;2.30;99.90;;;;;;5010439;28;20480;-69
2023/12/05 11:53:32;;;;;;;37.00;25.52;;;2.30;99.90;;;;;;5002287;28;20673;-72
2023/12/05 11:55:59;;;;;;;38.60;26.95;;;2.30;99.90;;;;;;5000587;28;20692;-72
2023/12/05 11:58:27;;;;;;;40.72;24.75;;;2.50;99.90;;;;;;5004668;28;20231;-67
2023/12/05 12:01:02;;;;;;;41.72;27.05;;;2.50;99.90;;;;;;5002950;28;20305;-68
2023/12/05 12:03:45;;;;;;;34.75;23.65;;;2.50;99.90;;;;;;5005278;28;20203;-70
2023/12/05 12:06:12;;;;;;;43.38;26.00;;;2.50;99.90;;;;;;5003004;28;20214;-71
2023/12/05 12:08:40;;;;;;;38.65;27.55;;;2.40;99.90;;;;;;4998863;28;20315;-70
2023/12/05 12:11:07;;;;;;;37.55;25.85;;;2.40;99.90;;;;;;5012674;28;20247;-67
2023/12/05 12:13:35;;;;;;;39.35;26.50;;;2.40;99.90;;;;;;5007762;28;20206;-69
2023/12/05 12:16:02;;;;;;;41.78;27.50;;;2.50;99.90;;;;;;5009032;28;20304;-71
2023/12/05 12:18:30;;;;;;;35.70;23.92;;;2.40;99.90;;;;;;5003839;28;20264;-67
2023/12/05 12:20:59;;;;;;;37.97;25.48;;;2.40;99.90;;;;;;4999563;28;20202;-69
2023/12/05 12:23:26;;;;;;;38.92;26.45;;;2.30;99.90;;;;;;5002633;28;20248;-71
2023/12/05 12:25:57;;;;;;;43.92;28.00;;;2.30;99.90;;;;;;4998304;28;20731;-68
2023/12/05 12:28:26;;;;;;;38.28;25.90;;;2.30;99.90;;;;;;5006205;28;20221;-70
2023/12/05 12:30:53;;;;;;;35.42;27.45;;;2.30;99.90;;;;;;5007453;28;20204;-67
2023/12/05 12:33:22;;;;;;;35.22;24.00;;;2.30;99.90;;;;;;5003799;28;20209;-69
2023/12/05 12:35:50;;;;;;;33.90;23.75;;;2.50;99.90;;;;;;5015189;28;20235;-69
2023/12/05 12:38:18;;;;;;;39.78;26.08;;;2.30;99.90;;;;;;5026533;28;20291;-71
2023/12/05 12:40:48;;;;;;;35.47;25.17;;;2.40;99.90;;;;;;5028656;28;20243;-70
2023/12/05 12:43:15;;;;;;;36.65;25.75;;;2.40;99.90;;;;;;5024557;28;20539;-71
2023/12/05 12:45:42;;;;;;;35.65;24.17;;;2.40;99.90;;;;;;5023686;28;20256;-73
2023/12/05 12:48:10;;;;;;;35.28;23.80;;;2.40;99.90;;;;;;5033039;28;20251;-68
2023/12/05 12:50:37;;;;;;;37.63;26.25;;;2.40;99.90;;;;;;5026686;28;20237;-69
2023/12/05 12:53:06;;;;;;;32.97;22.42;;;2.50;99.90;;;;;;5028458;28;20208;-70
2023/12/05 12:55:34;;;;;;;32.28;23.30;;;2.60;99.90;;;;;;5027480;28;20224;-69
2023/12/05 12:58:03;;;;;;;32.85;24.48;;;2.60;99.90;;;;;;5030108;28;20292;-69
2023/12/05 13:00:34;;;;;;;31.80;24.23;;;2.60;99.90;;;;;;5029363;28;20353;-69
2023/12/05 13:03:02;;;;;;;32.15;22.65;;;2.60;99.90;;;;;;5024684;28;20205;-68
2023/12/05 13:05:33;;;;;;;34.15;24.92;;;2.50;99.90;;;;;;5025643;28;20264;-72
2023/12/05 13:08:00;;;;;;;34.03;24.38;;;2.50;99.90;;;;;;5025519;28;20763;-73
2023/12/05 13:10:28;;;;;;;32.50;22.05;;;2.60;99.90;;;;;;5033260;28;20529;-72
2023/12/05 13:12:58;;;;;;;36.45;25.52;;;2.60;99.90;;;;;;5026918;28;20197;-70
2023/12/05 13:15:27;;;;;;;32.90;22.85;;;2.60;99.90;;;;;;5023448;28;20220;-71
2023/12/05 13:17:58;;;;;;;37.05;24.50;;;2.60;99.90;;;;;;5035514;28;20293;-73
2023/12/05 13:20:26;;;;;;;35.38;24.88;;;2.60;99.90;;;;;;5036618;28;20261;-68
2023/12/05 13:22:53;;;;;;;38.15;23.98;;;2.70;99.90;;;;;;5028071;28;20594;-67
2023/12/05 13:25:20;;;;;;;38.50;26.30;;;2.70;99.90;;;;;;5021885;28;20224;-72
2023/12/05 13:27:49;;;;;;;39.05;25.23;;;2.70;99.90;;;;;;5026795;28;20520;-71
2023/12/05 13:30:19;;;;;;;34.92;24.38;;;2.70;99.90;;;;;;5032954;28;20209;-69
2023/12/05 13:32:46;;;;;;;39.80;23.85;;;2.70;99.90;;;;;;5023623;28;20283;-69
2023/12/05 13:35:14;;;;;;;37.25;24.05;;;2.70;99.90;;;;;;5027300;28;20282;-71
2023/12/05 13:37:41;;;;;;;35.28;24.23;;;2.60;99.90;;;;;;5022116;28;20217;-68
2023/12/05 13:40:10;;;;;;;35.50;25.63;;;2.60;99.90;;;;;;5028004;28;20228;-68
2023/12/05 13:42:37;;;;;;;32.80;22.42;;;2.60;99.90;;;;;;5029081;28;20655;-69
2023/12/05 13:45:05;;;;;;;30.95;21.25;;;2.70;99.90;;;;;;5037347;28;20232;-69
2023/12/05 13:47:34;;;;;;;39.75;26.95;;;2.70;99.90;;;;;;5020493;28;20227;-69
2023/12/05 13:50:04;;;;;;;35.63;23.05;;;2.90;99.90;;;;;;5020873;28;20228;-69
2023/12/05 13:52:31;;;;;;;32.63;24.42;;;2.70;99.90;;;;;;5034472;28;20249;-72
2023/12/05 13:54:58;;;;;;;33.45;22.40;;;2.60;99.90;;;;;;5019957;28;20633;-70
2023/12/05 13:57:26;;;;;;;37.50;25.52;;;2.60;99.90;;;;;;5024554;28;20235;-70
2023/12/05 13:59:53;;;;;;;27.48;21.42;;;2.60;99.90;;;;;;5028996;28;20678;-70
2023/12/05 14:02:20;;;;;;;29.08;20.65;;;2.70;99.90;;;;;;5021985;28;20646;-70
2023/12/05 14:04:48;;;;;;;35.28;21.80;;;2.60;99.90;;;;;;5020890;28;20249;-67
2023/12/05 14:07:16;;;;;;;34.88;23.55;;;2.70;99.90;;;;;;5034467;28;20209;-68
2023/12/05 14:09:43;;;;;;;30.10;21.25;;;2.60;99.90;;;;;;5021654;28;20220;-69
2023/12/05 14:12:12;;;;;;;30.02;21.25;;;2.60;99.90;;;;;;5020287;28;20211;-70
2023/12/05 14:14:40;;;;;;;34.88;22.10;;;2.70;99.90;;;;;;5025450;28;20230;-72
2023/12/05 14:17:07;;;;;;;30.00;19.73;;;2.60;99.90;;;;;;5033033;28;20243;-69
2023/12/05 14:19:34;;;;;;;31.70;22.17;;;2.60;99.90;;;;;;5031667;28;20248;-71
2023/12/05 14:22:02;;;;;;;36.17;24.95;;;2.70;99.90;;;;;;5033427;28;20215;-68
2023/12/05 14:24:29;;;;;;;36.75;23.85;;;2.60;99.90;;;;;;5032339;28;20240;-71